sensor_id;sensor_type;location;lat;lon;timestamp;temperature;humidity
27858;DHT22;16852;51.446;6.528;2022-11-15T00:01:00;10.40;99.90
27858;DHT22;16852;51.446;6.528;2022-11-15T00:03:00;10.40;99.90
27858;DHT22;16852;51.446;6.528;2022-11-15T00:05:01;10.40;99.90
27858;DHT22;16852;51.446;6.528;2022-11-15T00:07:01;10.40;99.90
27858;DHT22;16852;51.446;6.528;2022-11-15T00:09:03;10.50;99.90
27858;DHT22;16852;51.446;6.528;2022-11-15T00:11:03;10.50;99.90
27858;DHT22;16852;51.446;6.528;2022-11-15T00:13:08;10.50;99.90
27858;DHT22;16852;51.446;6.528;2022-11-15T00:15:09;10.50;99.90
27858;DHT22;16852;51.446;6.528;2022-11-15T00:17:09;10.50;99.90
27858;DHT22;16852;51.446;6.528;2022-11-15T00:19:10;10.50;99.90
27858;DHT22;16852;51.446;6.528;2022-11-15T00:21:12;10.60;99.90
27858;DHT22;16852;51.446;6.528;2022-11-15T00:23:13;10.60;99.90
27858;DHT22;16852;51.446;6.528;2022-11-15T00:25:14;10.70;99.90
27858;DHT22;16852;51.446;6.528;2022-11-15T00:27:14;10.60;99.90
27858;DHT22;16852;51.446;6.528;2022-11-15T00:29:15;10.70;99.90
27858;DHT22;16852;51.446;6.528;2022-11-15T00:31:15;10.70;99.90
27858;DHT22;16852;51.446;6.528;2022-11-15T00:33:16;10.70;99.90
27858;DHT22;16852;51.446;6.528;2022-11-15T00:35:17;10.70;99.90
27858;DHT22;16852;51.446;6.528;2022-11-15T00:37:18;10.80;99.90
27858;DHT22;16852;51.446;6.528;2022-11-15T00:39:18;10.80;99.90
27858;DHT22;16852;51.446;6.528;2022-11-15T00:41:19;10.80;99.90
27858;DHT22;16852;51.446;6.528;2022-11-15T00:43:20;10.80;99.90
27858;DHT22;16852;51.446;6.528;2022-11-15T00:45:20;10.90;99.90
27858;DHT22;16852;51.446;6.528;2022-11-15T00:47:21;10.90;99.90
27858;DHT22;16852;51.446;6.528;2022-11-15T00:49:21;10.90;99.90
27858;DHT22;16852;51.446;6.528;2022-11-15T00:51:22;10.90;99.90
27858;DHT22;16852;51.446;6.528;2022-11-15T00:53:22;10.90;99.90
27858;DHT22;16852;51.446;6.528;2022-11-15T00:55:23;10.90;99.90
27858;DHT22;16852;51.446;6.528;2022-11-15T00:57:24;11.00;99.90
27858;DHT22;16852;51.446;6.528;2022-11-15T00:59:24;10.90;99.90
27858;DHT22;16852;51.446;6.528;2022-11-15T01:01:25;11.00;99.90
27858;DHT22;16852;51.446;6.528;2022-11-15T01:03:25;11.00;99.90
27858;DHT22;16852;51.446;6.528;2022-11-15T01:05:26;11.00;99.90
27858;DHT22;16852;51.446;6.528;2022-11-15T01:07:26;11.00;99.90
27858;DHT22;16852;51.446;6.528;2022-11-15T01:09:27;11.00;99.90
27858;DHT22;16852;51.446;6.528;2022-11-15T01:11:27;11.10;99.90
27858;DHT22;16852;51.446;6.528;2022-11-15T01:13:33;11.10;99.90
27858;DHT22;16852;51.446;6.528;2022-11-15T01:15:33;11.00;99.90
27858;DHT22;16852;51.446;6.528;2022-11-15T01:17:34;11.10;99.90
27858;DHT22;16852;51.446;6.528;2022-11-15T01:19:34;11.10;99.90
27858;DHT22;16852;51.446;6.528;2022-11-15T01:21:35;11.10;99.90
27858;DHT22;16852;51.446;6.528;2022-11-15T01:23:36;11.10;99.90
27858;DHT22;16852;51.446;6.528;2022-11-15T01:25:36;11.10;99.90
27858;DHT22;16852;51.446;6.528;2022-11-15T01:27:37;11.10;99.90
27858;DHT22;16852;51.446;6.528;2022-11-15T01:29:38;11.10;99.90
27858;DHT22;16852;51.446;6.528;2022-11-15T01:31:38;11.20;99.90
27858;DHT22;16852;51.446;6.528;2022-11-15T01:33:39;11.20;99.90
27858;DHT22;16852;51.446;6.528;2022-11-15T01:35:39;11.20;99.90
27858;DHT22;16852;51.446;6.528;2022-11-15T01:37:40;11.20;99.90
27858;DHT22;16852;51.446;6.528;2022-11-15T01:39:41;11.20;99.90
27858;DHT22;16852;51.446;6.528;2022-11-15T01:41:41;11.30;99.90
27858;DHT22;16852;51.446;6.528;2022-11-15T01:43:42;11.30;99.90
27858;DHT22;16852;51.446;6.528;2022-11-15T01:45:48;11.30;99.90
27858;DHT22;16852;51.446;6.528;2022-11-15T01:47:54;11.30;99.90
27858;DHT22;16852;51.446;6.528;2022-11-15T01:50:00;11.30;99.90
27858;DHT22;16852;51.446;6.528;2022-11-15T01:52:05;11.30;99.90
27858;DHT22;16852;51.446;6.528;2022-11-15T01:54:12;11.30;99.90
27858;DHT22;16852;51.446;6.528;2022-11-15T01:56:23;11.40;99.90
27858;DHT22;16852;51.446;6.528;2022-11-15T01:58:24;11.40;99.90
27858;DHT22;16852;51.446;6.528;2022-11-15T02:00:25;11.40;99.90
27858;DHT22;16852;51.446;6.528;2022-11-15T02:02:26;11.40;99.90
27858;DHT22;16852;51.446;6.528;2022-11-15T02:04:28;11.40;99.90
27858;DHT22;16852;51.446;6.528;2022-11-15T02:06:30;11.40;99.90
27858;DHT22;16852;51.446;6.528;2022-11-15T02:08:31;11.40;99.90
27858;DHT22;16852;51.446;6.528;2022-11-15T02:10:31;11.50;99.90
27858;DHT22;16852;51.446;6.528;2022-11-15T02:12:32;11.50;99.90
27858;DHT22;16852;51.446;6.528;2022-11-15T02:14:33;11.50;99.90
27858;DHT22;16852;51.446;6.528;2022-11-15T02:17:01;11.50;99.90
27858;DHT22;16852;51.446;6.528;2022-11-15T02:22:01;11.50;99.90
27858;DHT22;16852;51.446;6.528;2022-11-15T02:36:42;11.70;99.90
27858;DHT22;16852;51.446;6.528;2022-11-15T02:38:47;11.70;99.90
27858;DHT22;16852;51.446;6.528;2022-11-15T02:41:07;11.70;99.90
27858;DHT22;16852;51.446;6.528;2022-11-15T02:43:11;11.70;99.90
27858;DHT22;16852;51.446;6.528;2022-11-15T02:45:37;11.70;99.90
27858;DHT22;16852;51.446;6.528;2022-11-15T02:47:44;11.70;99.90
27858;DHT22;16852;51.446;6.528;2022-11-15T02:49:49;11.70;99.90
27858;DHT22;16852;51.446;6.528;2022-11-15T02:51:51;11.80;99.90
27858;DHT22;16852;51.446;6.528;2022-11-15T02:53:52;11.80;99.90
27858;DHT22;16852;51.446;6.528;2022-11-15T02:55:54;11.80;99.90
27858;DHT22;16852;51.446;6.528;2022-11-15T03:00:32;11.80;99.90
27858;DHT22;16852;51.446;6.528;2022-11-15T03:05:08;11.90;99.90
27858;DHT22;16852;51.446;6.528;2022-11-15T03:07:44;11.90;99.90
27858;DHT22;16852;51.446;6.528;2022-11-15T03:09:55;11.90;99.90
27858;DHT22;16852;51.446;6.528;2022-11-15T03:12:12;11.90;99.90
27858;DHT22;16852;51.446;6.528;2022-11-15T03:14:37;11.90;99.90
27858;DHT22;16852;51.446;6.528;2022-11-15T03:19:04;11.90;99.90
27858;DHT22;16852;51.446;6.528;2022-11-15T03:21:07;11.90;99.90
27858;DHT22;16852;51.446;6.528;2022-11-15T03:23:10;11.90;99.90
27858;DHT22;16852;51.446;6.528;2022-11-15T03:25:16;11.90;99.90
27858;DHT22;16852;51.446;6.528;2022-11-15T03:27:20;11.90;99.90
27858;DHT22;16852;51.446;6.528;2022-11-15T03:29:25;11.90;99.90
27858;DHT22;16852;51.446;6.528;2022-11-15T03:31:30;12.00;99.90
27858;DHT22;16852;51.446;6.528;2022-11-15T03:33:50;12.00;99.90
27858;DHT22;16852;51.446;6.528;2022-11-15T03:35:54;12.00;99.90
27858;DHT22;16852;51.446;6.528;2022-11-15T03:38:19;12.00;99.90
27858;DHT22;16852;51.446;6.528;2022-11-15T03:40:29;12.00;99.90
27858;DHT22;16852;51.446;6.528;2022-11-15T03:42:54;12.10;99.90
27858;DHT22;16852;51.446;6.528;2022-11-15T03:45:02;12.10;99.90
27858;DHT22;16852;51.446;6.528;2022-11-15T03:47:18;12.10;99.90
27858;DHT22;16852;51.446;6.528;2022-11-15T03:49:28;12.10;99.90
27858;DHT22;16852;51.446;6.528;2022-11-15T03:51:30;12.10;99.90
27858;DHT22;16852;51.446;6.528;2022-11-15T03:53:30;12.10;99.90
27858;DHT22;16852;51.446;6.528;2022-11-15T03:55:32;12.10;99.90
27858;DHT22;16852;51.446;6.528;2022-11-15T03:57:33;12.20;99.90
27858;DHT22;16852;51.446;6.528;2022-11-15T03:59:33;12.20;99.90
27858;DHT22;16852;51.446;6.528;2022-11-15T04:01:34;12.20;99.90
27858;DHT22;16852;51.446;6.528;2022-11-15T04:03:35;12.20;99.90
27858;DHT22;16852;51.446;6.528;2022-11-15T04:05:35;12.30;99.90
27858;DHT22;16852;51.446;6.528;2022-11-15T04:07:36;12.30;99.90
27858;DHT22;16852;51.446;6.528;2022-11-15T04:09:37;12.30;99.90
27858;DHT22;16852;51.446;6.528;2022-11-15T04:11:56;12.30;99.90
27858;DHT22;16852;51.446;6.528;2022-11-15T04:13:56;12.30;99.90
27858;DHT22;16852;51.446;6.528;2022-11-15T04:15:57;12.30;99.90
27858;DHT22;16852;51.446;6.528;2022-11-15T04:17:57;12.30;99.90
27858;DHT22;16852;51.446;6.528;2022-11-15T04:19:58;12.30;99.90
27858;DHT22;16852;51.446;6.528;2022-11-15T04:22:17;12.30;99.90
27858;DHT22;16852;51.446;6.528;2022-11-15T04:24:37;12.40;99.90
27858;DHT22;16852;51.446;6.528;2022-11-15T04:26:37;12.40;99.90
27858;DHT22;16852;51.446;6.528;2022-11-15T04:28:38;12.40;99.90
27858;DHT22;16852;51.446;6.528;2022-11-15T04:30:59;12.40;99.90
27858;DHT22;16852;51.446;6.528;2022-11-15T04:32:59;12.40;99.90
27858;DHT22;16852;51.446;6.528;2022-11-15T04:35:00;12.40;99.90
27858;DHT22;16852;51.446;6.528;2022-11-15T04:37:01;12.40;99.90
27858;DHT22;16852;51.446;6.528;2022-11-15T04:39:13;12.50;99.90
27858;DHT22;16852;51.446;6.528;2022-11-15T04:41:14;12.40;99.90
27858;DHT22;16852;51.446;6.528;2022-11-15T04:43:14;12.50;99.90
27858;DHT22;16852;51.446;6.528;2022-11-15T04:45:15;12.50;99.90
27858;DHT22;16852;51.446;6.528;2022-11-15T04:47:16;12.50;99.90
27858;DHT22;16852;51.446;6.528;2022-11-15T04:49:16;12.50;99.90
27858;DHT22;16852;51.446;6.528;2022-11-15T04:51:17;12.50;99.90
27858;DHT22;16852;51.446;6.528;2022-11-15T04:53:18;12.40;99.90
27858;DHT22;16852;51.446;6.528;2022-11-15T04:55:19;12.50;99.90
27858;DHT22;16852;51.446;6.528;2022-11-15T04:57:20;12.40;99.90
27858;DHT22;16852;51.446;6.528;2022-11-15T04:59:20;12.40;99.90
27858;DHT22;16852;51.446;6.528;2022-11-15T05:01:21;12.50;99.90
27858;DHT22;16852;51.446;6.528;2022-11-15T05:03:21;12.50;99.90
27858;DHT22;16852;51.446;6.528;2022-11-15T05:05:41;12.50;99.90
27858;DHT22;16852;51.446;6.528;2022-11-15T05:07:42;12.40;99.90
27858;DHT22;16852;51.446;6.528;2022-11-15T05:09:42;12.40;99.90
27858;DHT22;16852;51.446;6.528;2022-11-15T05:11:43;12.40;99.90
27858;DHT22;16852;51.446;6.528;2022-11-15T05:13:44;12.40;99.90
27858;DHT22;16852;51.446;6.528;2022-11-15T05:15:44;12.40;99.90
27858;DHT22;16852;51.446;6.528;2022-11-15T05:17:45;12.40;99.90
27858;DHT22;16852;51.446;6.528;2022-11-15T05:19:45;12.40;99.90
27858;DHT22;16852;51.446;6.528;2022-11-15T05:21:47;12.40;99.90
27858;DHT22;16852;51.446;6.528;2022-11-15T05:23:47;12.40;99.90
27858;DHT22;16852;51.446;6.528;2022-11-15T05:25:48;12.50;99.90
27858;DHT22;16852;51.446;6.528;2022-11-15T05:27:48;12.50;99.90
27858;DHT22;16852;51.446;6.528;2022-11-15T05:29:49;12.50;99.90
27858;DHT22;16852;51.446;6.528;2022-11-15T05:31:50;12.50;99.90
27858;DHT22;16852;51.446;6.528;2022-11-15T05:33:51;12.50;99.90
27858;DHT22;16852;51.446;6.528;2022-11-15T05:36:18;12.50;99.90
27858;DHT22;16852;51.446;6.528;2022-11-15T05:38:17;12.50;99.90
27858;DHT22;16852;51.446;6.528;2022-11-15T05:40:18;12.50;99.90
27858;DHT22;16852;51.446;6.528;2022-11-15T05:42:19;12.50;99.90
27858;DHT22;16852;51.446;6.528;2022-11-15T05:44:22;12.40;99.90
27858;DHT22;16852;51.446;6.528;2022-11-15T05:46:23;12.50;99.90
27858;DHT22;16852;51.446;6.528;2022-11-15T05:48:24;12.40;99.90
27858;DHT22;16852;51.446;6.528;2022-11-15T05:50:25;12.40;99.90
27858;DHT22;16852;51.446;6.528;2022-11-15T05:52:29;12.40;99.90
27858;DHT22;16852;51.446;6.528;2022-11-15T05:54:32;12.50;99.90
27858;DHT22;16852;51.446;6.528;2022-11-15T05:56:33;12.40;99.90
27858;DHT22;16852;51.446;6.528;2022-11-15T05:58:34;12.40;99.90
27858;DHT22;16852;51.446;6.528;2022-11-15T06:00:36;12.40;99.90
27858;DHT22;16852;51.446;6.528;2022-11-15T06:02:36;12.40;99.90
27858;DHT22;16852;51.446;6.528;2022-11-15T06:04:37;12.40;99.90
27858;DHT22;16852;51.446;6.528;2022-11-15T06:06:37;12.40;99.90
27858;DHT22;16852;51.446;6.528;2022-11-15T06:08:38;12.40;99.90
27858;DHT22;16852;51.446;6.528;2022-11-15T06:10:38;12.40;99.90
27858;DHT22;16852;51.446;6.528;2022-11-15T06:12:39;12.40;99.90
27858;DHT22;16852;51.446;6.528;2022-11-15T06:14:40;12.40;99.90
27858;DHT22;16852;51.446;6.528;2022-11-15T06:16:40;12.40;99.90
27858;DHT22;16852;51.446;6.528;2022-11-15T06:18:41;12.40;99.90
27858;DHT22;16852;51.446;6.528;2022-11-15T06:20:41;12.40;99.90
27858;DHT22;16852;51.446;6.528;2022-11-15T06:22:42;12.40;99.90
27858;DHT22;16852;51.446;6.528;2022-11-15T06:24:42;12.40;99.90
27858;DHT22;16852;51.446;6.528;2022-11-15T06:26:44;12.40;99.90
27858;DHT22;16852;51.446;6.528;2022-11-15T06:28:44;12.40;99.90
27858;DHT22;16852;51.446;6.528;2022-11-15T06:30:45;12.50;99.90
27858;DHT22;16852;51.446;6.528;2022-11-15T06:32:46;12.40;99.90
27858;DHT22;16852;51.446;6.528;2022-11-15T06:34:46;12.40;99.90
27858;DHT22;16852;51.446;6.528;2022-11-15T06:36:47;12.40;99.90
27858;DHT22;16852;51.446;6.528;2022-11-15T06:38:47;12.40;99.90
27858;DHT22;16852;51.446;6.528;2022-11-15T06:40:48;12.50;99.90
27858;DHT22;16852;51.446;6.528;2022-11-15T06:42:49;12.50;99.90
27858;DHT22;16852;51.446;6.528;2022-11-15T06:44:49;12.50;99.90
27858;DHT22;16852;51.446;6.528;2022-11-15T06:46:50;12.50;99.90
27858;DHT22;16852;51.446;6.528;2022-11-15T06:48:51;12.50;99.90
27858;DHT22;16852;51.446;6.528;2022-11-15T06:50:54;12.50;99.90
27858;DHT22;16852;51.446;6.528;2022-11-15T06:52:55;12.50;99.90
27858;DHT22;16852;51.446;6.528;2022-11-15T06:54:55;12.50;99.90
27858;DHT22;16852;51.446;6.528;2022-11-15T06:56:56;12.50;99.90
27858;DHT22;16852;51.446;6.528;2022-11-15T06:58:56;12.50;99.90
27858;DHT22;16852;51.446;6.528;2022-11-15T07:01:05;12.50;99.90
27858;DHT22;16852;51.446;6.528;2022-11-15T07:03:06;12.50;99.90
27858;DHT22;16852;51.446;6.528;2022-11-15T07:05:06;12.60;99.90
27858;DHT22;16852;51.446;6.528;2022-11-15T07:07:07;12.50;99.90
27858;DHT22;16852;51.446;6.528;2022-11-15T07:09:08;12.50;99.90
27858;DHT22;16852;51.446;6.528;2022-11-15T07:11:09;12.60;99.90
27858;DHT22;16852;51.446;6.528;2022-11-15T07:13:09;12.50;99.90
27858;DHT22;16852;51.446;6.528;2022-11-15T07:15:10;12.50;99.90
27858;DHT22;16852;51.446;6.528;2022-11-15T07:17:11;12.50;99.90
27858;DHT22;16852;51.446;6.528;2022-11-15T07:19:11;12.50;99.90
27858;DHT22;16852;51.446;6.528;2022-11-15T07:21:12;12.50;99.90
27858;DHT22;16852;51.446;6.528;2022-11-15T07:23:13;12.50;99.90
27858;DHT22;16852;51.446;6.528;2022-11-15T07:25:13;12.50;99.90
27858;DHT22;16852;51.446;6.528;2022-11-15T07:27:14;12.50;99.90
27858;DHT22;16852;51.446;6.528;2022-11-15T07:29:14;12.50;99.90
27858;DHT22;16852;51.446;6.528;2022-11-15T07:31:15;12.50;99.90
27858;DHT22;16852;51.446;6.528;2022-11-15T07:33:16;12.50;99.90
27858;DHT22;16852;51.446;6.528;2022-11-15T07:35:16;12.50;99.90
27858;DHT22;16852;51.446;6.528;2022-11-15T07:37:17;12.50;99.90
27858;DHT22;16852;51.446;6.528;2022-11-15T07:39:18;12.50;99.90
27858;DHT22;16852;51.446;6.528;2022-11-15T07:41:18;12.50;99.90
27858;DHT22;16852;51.446;6.528;2022-11-15T07:43:19;12.40;99.90
27858;DHT22;16852;51.446;6.528;2022-11-15T07:45:20;12.40;99.90
27858;DHT22;16852;51.446;6.528;2022-11-15T07:47:21;12.50;99.90
27858;DHT22;16852;51.446;6.528;2022-11-15T07:49:22;12.40;99.90
27858;DHT22;16852;51.446;6.528;2022-11-15T07:51:22;12.50;99.90
27858;DHT22;16852;51.446;6.528;2022-11-15T07:53:23;12.50;99.90
27858;DHT22;16852;51.446;6.528;2022-11-15T07:55:25;12.50;99.90
27858;DHT22;16852;51.446;6.528;2022-11-15T07:57:25;12.50;99.90
27858;DHT22;16852;51.446;6.528;2022-11-15T07:59:26;12.50;99.90
27858;DHT22;16852;51.446;6.528;2022-11-15T08:01:27;12.50;99.90
27858;DHT22;16852;51.446;6.528;2022-11-15T08:03:27;12.50;99.90
27858;DHT22;16852;51.446;6.528;2022-11-15T08:05:29;12.50;99.90
27858;DHT22;16852;51.446;6.528;2022-11-15T08:07:30;12.50;99.90
27858;DHT22;16852;51.446;6.528;2022-11-15T08:09:31;12.50;99.90
27858;DHT22;16852;51.446;6.528;2022-11-15T08:11:32;12.50;99.90
27858;DHT22;16852;51.446;6.528;2022-11-15T08:13:32;12.50;99.90
27858;DHT22;16852;51.446;6.528;2022-11-15T08:15:34;12.40;99.90
27858;DHT22;16852;51.446;6.528;2022-11-15T08:17:35;12.30;99.90
27858;DHT22;16852;51.446;6.528;2022-11-15T08:19:36;12.30;99.90
27858;DHT22;16852;51.446;6.528;2022-11-15T08:21:36;12.30;99.90
27858;DHT22;16852;51.446;6.528;2022-11-15T08:23:37;12.30;99.90
27858;DHT22;16852;51.446;6.528;2022-11-15T08:25:38;12.30;99.90
27858;DHT22;16852;51.446;6.528;2022-11-15T08:27:39;12.30;99.90
27858;DHT22;16852;51.446;6.528;2022-11-15T08:29:46;12.30;99.90
27858;DHT22;16852;51.446;6.528;2022-11-15T08:31:47;12.30;99.90
27858;DHT22;16852;51.446;6.528;2022-11-15T08:33:48;12.30;99.90
27858;DHT22;16852;51.446;6.528;2022-11-15T08:35:48;12.30;99.90
27858;DHT22;16852;51.446;6.528;2022-11-15T08:37:49;12.30;99.90
27858;DHT22;16852;51.446;6.528;2022-11-15T08:39:50;12.30;99.90
27858;DHT22;16852;51.446;6.528;2022-11-15T08:41:50;12.30;99.90
27858;DHT22;16852;51.446;6.528;2022-11-15T08:43:51;12.30;99.90
27858;DHT22;16852;51.446;6.528;2022-11-15T08:45:51;12.40;99.90
27858;DHT22;16852;51.446;6.528;2022-11-15T08:47:52;12.40;99.90
27858;DHT22;16852;51.446;6.528;2022-11-15T08:49:53;12.40;99.90
27858;DHT22;16852;51.446;6.528;2022-11-15T08:51:53;12.40;99.90
27858;DHT22;16852;51.446;6.528;2022-11-15T08:53:54;12.50;99.90
27858;DHT22;16852;51.446;6.528;2022-11-15T08:55:54;12.50;99.90
27858;DHT22;16852;51.446;6.528;2022-11-15T08:57:57;12.50;99.90
27858;DHT22;16852;51.446;6.528;2022-11-15T08:59:58;12.60;99.90
27858;DHT22;16852;51.446;6.528;2022-11-15T09:01:58;12.60;99.90
27858;DHT22;16852;51.446;6.528;2022-11-15T09:03:59;12.70;99.90
27858;DHT22;16852;51.446;6.528;2022-11-15T09:06:00;12.80;99.90
27858;DHT22;16852;51.446;6.528;2022-11-15T09:08:01;12.90;99.90
27858;DHT22;16852;51.446;6.528;2022-11-15T09:10:02;13.00;99.90
27858;DHT22;16852;51.446;6.528;2022-11-15T09:12:03;13.10;99.90
27858;DHT22;16852;51.446;6.528;2022-11-15T09:14:04;13.30;99.90
27858;DHT22;16852;51.446;6.528;2022-11-15T09:16:05;13.40;99.90
27858;DHT22;16852;51.446;6.528;2022-11-15T09:18:06;13.40;99.90
27858;DHT22;16852;51.446;6.528;2022-11-15T09:20:07;13.50;99.90
27858;DHT22;16852;51.446;6.528;2022-11-15T09:22:08;13.50;99.90
27858;DHT22;16852;51.446;6.528;2022-11-15T09:24:08;13.60;99.90
27858;DHT22;16852;51.446;6.528;2022-11-15T09:26:09;13.70;99.90
27858;DHT22;16852;51.446;6.528;2022-11-15T09:28:09;13.70;99.90
27858;DHT22;16852;51.446;6.528;2022-11-15T09:30:10;13.80;99.90
27858;DHT22;16852;51.446;6.528;2022-11-15T09:32:11;13.80;99.90
27858;DHT22;16852;51.446;6.528;2022-11-15T09:34:12;13.80;99.90
27858;DHT22;16852;51.446;6.528;2022-11-15T09:36:12;13.80;99.90
27858;DHT22;16852;51.446;6.528;2022-11-15T09:38:13;13.90;99.90
27858;DHT22;16852;51.446;6.528;2022-11-15T09:40:15;13.90;99.90
27858;DHT22;16852;51.446;6.528;2022-11-15T09:45:04;13.90;99.90
27858;DHT22;16852;51.446;6.528;2022-11-15T09:49:38;14.00;99.90
27858;DHT22;16852;51.446;6.528;2022-11-15T09:51:40;13.90;99.90
27858;DHT22;16852;51.446;6.528;2022-11-15T09:54:11;13.90;99.90
27858;DHT22;16852;51.446;6.528;2022-11-15T09:56:23;13.90;99.90
27858;DHT22;16852;51.446;6.528;2022-11-15T09:58:39;13.90;99.90
27858;DHT22;16852;51.446;6.528;2022-11-15T10:00:47;13.90;99.90
27858;DHT22;16852;51.446;6.528;2022-11-15T10:03:14;13.90;99.90
27858;DHT22;16852;51.446;6.528;2022-11-15T10:05:19;13.90;99.90
27858;DHT22;16852;51.446;6.528;2022-11-15T10:10:32;14.00;99.90
27858;DHT22;16852;51.446;6.528;2022-11-15T10:12:35;14.00;99.90
27858;DHT22;16852;51.446;6.528;2022-11-15T10:14:36;14.00;99.90
27858;DHT22;16852;51.446;6.528;2022-11-15T10:21:33;14.10;99.90
27858;DHT22;16852;51.446;6.528;2022-11-15T10:23:38;14.10;99.90
27858;DHT22;16852;51.446;6.528;2022-11-15T10:25:38;14.10;99.90
27858;DHT22;16852;51.446;6.528;2022-11-15T10:27:41;14.20;99.90
27858;DHT22;16852;51.446;6.528;2022-11-15T10:29:47;14.20;99.90
27858;DHT22;16852;51.446;6.528;2022-11-15T10:31:48;14.20;99.90
27858;DHT22;16852;51.446;6.528;2022-11-15T10:33:49;14.30;99.90
27858;DHT22;16852;51.446;6.528;2022-11-15T10:38:11;14.40;99.90
27858;DHT22;16852;51.446;6.528;2022-11-15T10:42:27;14.40;99.90
27858;DHT22;16852;51.446;6.528;2022-11-15T10:44:31;14.40;99.90
27858;DHT22;16852;51.446;6.528;2022-11-15T10:46:37;14.50;99.90
27858;DHT22;16852;51.446;6.528;2022-11-15T10:48:38;14.50;99.90
27858;DHT22;16852;51.446;6.528;2022-11-15T10:50:43;14.40;99.90
27858;DHT22;16852;51.446;6.528;2022-11-15T10:52:45;14.40;99.90
27858;DHT22;16852;51.446;6.528;2022-11-15T10:54:50;14.40;99.90
27858;DHT22;16852;51.446;6.528;2022-11-15T10:56:55;14.40;99.90
27858;DHT22;16852;51.446;6.528;2022-11-15T10:58:57;14.30;99.90
27858;DHT22;16852;51.446;6.528;2022-11-15T11:01:15;14.40;99.90
27858;DHT22;16852;51.446;6.528;2022-11-15T11:03:37;14.30;99.90
27858;DHT22;16852;51.446;6.528;2022-11-15T11:05:41;14.30;99.90
27858;DHT22;16852;51.446;6.528;2022-11-15T11:07:59;14.30;99.90
27858;DHT22;16852;51.446;6.528;2022-11-15T11:10:19;14.40;99.90
27858;DHT22;16852;51.446;6.528;2022-11-15T11:12:27;14.30;99.90
27858;DHT22;16852;51.446;6.528;2022-11-15T11:14:34;14.40;99.90
27858;DHT22;16852;51.446;6.528;2022-11-15T11:16:44;14.30;99.90
27858;DHT22;16852;51.446;6.528;2022-11-15T11:21:07;14.30;99.90
27858;DHT22;16852;51.446;6.528;2022-11-15T11:23:33;14.30;99.90
27858;DHT22;16852;51.446;6.528;2022-11-15T11:25:50;14.30;99.90
27858;DHT22;16852;51.446;6.528;2022-11-15T11:28:08;14.30;99.90
27858;DHT22;16852;51.446;6.528;2022-11-15T11:35:08;14.30;99.90
27858;DHT22;16852;51.446;6.528;2022-11-15T11:37:27;14.30;99.90
27858;DHT22;16852;51.446;6.528;2022-11-15T11:42:26;14.30;99.90
27858;DHT22;16852;51.446;6.528;2022-11-15T11:45:15;14.20;99.90
27858;DHT22;16852;51.446;6.528;2022-11-15T11:47:23;14.30;99.90
27858;DHT22;16852;51.446;6.528;2022-11-15T11:49:52;14.30;99.90
27858;DHT22;16852;51.446;6.528;2022-11-15T11:54:17;14.20;99.90
27858;DHT22;16852;51.446;6.528;2022-11-15T11:56:31;14.20;99.90
27858;DHT22;16852;51.446;6.528;2022-11-15T11:58:40;14.30;99.90
27858;DHT22;16852;51.446;6.528;2022-11-15T12:00:47;14.30;99.90
27858;DHT22;16852;51.446;6.528;2022-11-15T12:05:36;14.20;99.90
27858;DHT22;16852;51.446;6.528;2022-11-15T12:07:39;14.30;99.90
27858;DHT22;16852;51.446;6.528;2022-11-15T12:09:44;14.30;99.90
27858;DHT22;16852;51.446;6.528;2022-11-15T12:11:54;14.30;99.90
27858;DHT22;16852;51.446;6.528;2022-11-15T12:14:01;14.30;99.90
27858;DHT22;16852;51.446;6.528;2022-11-15T12:16:12;14.40;99.90
27858;DHT22;16852;51.446;6.528;2022-11-15T12:18:15;14.30;99.90
27858;DHT22;16852;51.446;6.528;2022-11-15T12:20:24;14.30;99.90
27858;DHT22;16852;51.446;6.528;2022-11-15T12:22:47;14.40;99.90
27858;DHT22;16852;51.446;6.528;2022-11-15T12:25:01;14.40;99.90
27858;DHT22;16852;51.446;6.528;2022-11-15T12:27:14;14.40;99.90
27858;DHT22;16852;51.446;6.528;2022-11-15T12:30:07;14.40;99.90
27858;DHT22;16852;51.446;6.528;2022-11-15T12:32:05;14.40;99.90
27858;DHT22;16852;51.446;6.528;2022-11-15T12:38:58;14.40;99.90
27858;DHT22;16852;51.446;6.528;2022-11-15T12:41:19;14.40;99.90
27858;DHT22;16852;51.446;6.528;2022-11-15T12:45:43;14.50;99.90
27858;DHT22;16852;51.446;6.528;2022-11-15T12:47:44;14.40;99.90
27858;DHT22;16852;51.446;6.528;2022-11-15T12:49:46;14.50;99.90
27858;DHT22;16852;51.446;6.528;2022-11-15T12:53:48;14.50;99.90
27858;DHT22;16852;51.446;6.528;2022-11-15T13:00:43;14.60;99.90
27858;DHT22;16852;51.446;6.528;2022-11-15T13:02:44;14.60;99.90
27858;DHT22;16852;51.446;6.528;2022-11-15T13:04:47;14.60;99.90
27858;DHT22;16852;51.446;6.528;2022-11-15T13:07:05;14.50;99.90
27858;DHT22;16852;51.446;6.528;2022-11-15T13:11:46;14.50;99.90
27858;DHT22;16852;51.446;6.528;2022-11-15T13:13:47;14.60;99.90
27858;DHT22;16852;51.446;6.528;2022-11-15T13:17:56;14.50;99.90
27858;DHT22;16852;51.446;6.528;2022-11-15T13:22:06;14.60;99.90
27858;DHT22;16852;51.446;6.528;2022-11-15T13:24:28;14.60;99.90
27858;DHT22;16852;51.446;6.528;2022-11-15T13:26:28;14.50;99.90
27858;DHT22;16852;51.446;6.528;2022-11-15T13:30:53;14.50;99.90
27858;DHT22;16852;51.446;6.528;2022-11-15T13:32:55;14.50;99.90
27858;DHT22;16852;51.446;6.528;2022-11-15T13:34:56;14.50;99.90
27858;DHT22;16852;51.446;6.528;2022-11-15T13:36:57;14.50;99.90
27858;DHT22;16852;51.446;6.528;2022-11-15T13:39:06;14.50;99.90
27858;DHT22;16852;51.446;6.528;2022-11-15T13:41:24;14.50;99.90
27858;DHT22;16852;51.446;6.528;2022-11-15T13:43:32;14.50;99.90
27858;DHT22;16852;51.446;6.528;2022-11-15T13:45:34;14.60;99.90
27858;DHT22;16852;51.446;6.528;2022-11-15T13:47:35;14.60;99.90
27858;DHT22;16852;51.446;6.528;2022-11-15T13:49:35;14.60;99.90
27858;DHT22;16852;51.446;6.528;2022-11-15T13:51:52;14.60;99.90
27858;DHT22;16852;51.446;6.528;2022-11-15T13:53:58;14.60;99.90
27858;DHT22;16852;51.446;6.528;2022-11-15T13:56:01;14.50;99.90
27858;DHT22;16852;51.446;6.528;2022-11-15T13:58:04;14.60;99.90
27858;DHT22;16852;51.446;6.528;2022-11-15T14:00:44;14.50;99.90
27858;DHT22;16852;51.446;6.528;2022-11-15T14:02:45;14.50;99.90
27858;DHT22;16852;51.446;6.528;2022-11-15T14:04:51;14.50;99.90
27858;DHT22;16852;51.446;6.528;2022-11-15T14:06:55;14.50;99.90
27858;DHT22;16852;51.446;6.528;2022-11-15T14:11:20;14.50;99.90
27858;DHT22;16852;51.446;6.528;2022-11-15T14:13:29;14.40;99.90
27858;DHT22;16852;51.446;6.528;2022-11-15T14:15:32;14.40;99.90
27858;DHT22;16852;51.446;6.528;2022-11-15T14:17:36;14.50;99.90
27858;DHT22;16852;51.446;6.528;2022-11-15T14:19:39;14.50;99.90
27858;DHT22;16852;51.446;6.528;2022-11-15T14:24:16;14.50;99.90
27858;DHT22;16852;51.446;6.528;2022-11-15T14:26:32;14.50;99.90
27858;DHT22;16852;51.446;6.528;2022-11-15T14:28:34;14.50;99.90